DW6005 Weather Reports


time (UTC)temp
C
wind
direction
speed
KPH
gust
KPH
rain 1hr
cm
rain 24hr
cm
rain mn
cm
humidity
%
barometer
mb
20190421150102 13 270 3.2 9.7 0.15 1.24 0.23 88 1006.0
20190421144625 13 312 0.0 1.6 0.10 1.17 0.15 87 1006.0
20190421143115 13 325 0.0 4.8 0.05 1.12 0.10 85 1006.2
20190421141651 13 269 1.6 9.7 0.05 1.09 0.08 84 1006.2
20190421140120 14 254 1.6 8.0 0.05 1.09 0.08 83 1006.2
20190421134643 14 236 3.2 12.9 0.03 1.09 0.05 82 1006.1
20190421133104 14 261 4.8 17.7 0.00 1.09 0.05 82 1006.1
20190421131606 14 251 4.8 14.5 0.03 1.09 0.05 83 1006.0
20190421130105 14 327 0.0 3.2 0.03 1.09 0.05 83 1006.5
20190421124558 15 293 1.6 6.4 0.03 1.09 0.05 82 1006.6
20190421123115 15 332 0.0 6.4 0.03 1.09 0.05 81 1006.6
20190421121555 15 301 6.4 14.5 0.00 1.09 0.03 76 1006.6
20190421120102 16 258 3.2 11.3 0.00 1.09 0.03 72 1006.6
20190421114630 16 293 8.0 19.3 0.00 1.09 0.03 71 1006.5
20190421113052 16 242 6.4 17.7 0.00 1.09 0.03 71 1006.8
20190421111619 15 253 9.7 17.7 0.00 1.09 0.03 72 1007.0
20190421110103 15 250 1.6 12.9 0.00 1.09 0.03 72 1007.5
20190421104608 15 286 3.2 9.7 0.00 1.17 0.03 73 1007.7
20190421103104 15 304 3.2 12.9 0.00 1.17 0.03 73 1007.8
20190421101550 15 259 6.4 12.9 0.00 1.17 0.03 73 1008.0
20190421100106 15 334 3.2 9.7 0.00 1.17 0.03 72 1008.0
20190421094532 15 287 1.6 8.0 0.00 1.27 0.03 74 1008.1
20190421093058 15 279 3.2 16.1 0.00 1.27 0.03 75 1008.2
20190421091509 15 310 0.0 6.4 0.00 1.27 0.03 78 1008.3
20190421090008 14 284 1.6 9.7 0.00 1.27 0.03 79 1008.5
20190421084508 13 292 3.2 12.9 0.03 1.37 0.03 81 1008.6
20190421083000 13 309 4.8 11.3 0.03 1.37 0.03 81 1008.6
20190421081726 13 279 1.6 12.9 0.03 1.37 0.03 81 1008.7
20190421080308 13 261 0.0 12.9 0.03 1.37 0.03 82 1008.9
20190421074634 13 271 1.6 11.3 0.00 1.75 0.00 84 1009.0
20190421073137 12 167 0.0 0.0 0.00 1.75 0.00 85 1009.1
20190421071637 12 155 0.0 0.0 0.00 1.75 0.00 83 1009.3
20190421070106 12 154 0.0 0.0 0.00 1.75 0.00 83 1009.3
20190421064647 12 154 0.0 3.2 0.00 2.01 0.00 81 1009.5
20190421063229 12 153 1.6 4.8 0.00 2.01 0.00 82 1009.3
20190421061607 12 143 1.6 6.4 0.00 2.01 0.00 81 1009.5
20190421060117 12 115 1.6 6.4 0.00 2.01 0.00 79 1009.3
20190421054553 12 316 0.0 4.8 0.00 2.44 0.00 80 1009.2
20190421053108 12 286 0.0 3.2 0.00 2.44 0.00 80 1009.1
20190421051538 12 329 0.0 4.8 0.00 2.44 0.00 79 1009.2
20190421050059 12 265 3.2 9.7 0.00 2.44 0.00 79 1009.1
20190421044629 12 288 1.6 11.3 0.00 2.90 0.00 79 1009.4
20190421043033 12 234 0.0 4.8 0.00 2.90 0.00 79 1009.9
20190421041543 13 325 0.0 6.4 0.00 2.90 0.00 79 1009.9
20190421040048 12 261 3.2 11.3 0.00 2.90 0.00 79 1010.0
20190421034537 13 278 0.0 4.8 0.00 3.43 0.00 80 1010.0
20190421033050 13 290 0.0 8.0 0.00 3.43 0.00 79 1010.2
20190421031539 13 350 4.8 16.1 0.00 3.43 0.00 79 1010.4
20190421030027 13 300 3.2 20.9 0.00 3.43 0.00 80 1010.6
20190421024540 13 264 4.8 17.7 0.00 4.17 0.00 81 1010.8
20190421023033 13 279 0.0 14.5 0.00 4.17 0.00 81 1010.9
20190421021511 13 251 3.2 16.1 0.00 4.17 0.00 82 1011.2
20190421020007 12 277 4.8 12.9 0.00 4.17 0.00 85 1011.0
20190421014513 12 301 1.6 8.0 0.00 4.95 0.00 90 1011.2
20190421013215 12 155 0.0 0.0 0.00 4.95 0.00 92 1011.4
20190421011737 12 261 0.0 0.0 0.00 4.95 0.00 93 1011.6
20190421010241 12 360 0.0 0.0 0.00 4.95 0.00 92 1011.5
20190421004723 12 360 0.0 0.0 0.00 5.99 0.00 93 1011.8
20190421003139 12 360 0.0 0.0 0.00 5.99 0.00 94 1011.7
20190421001802 12 144 0.0 0.0 0.00 5.99 0.00 95 1011.7
20190421000116 12 169 0.0 0.0 0.00 5.99 0.00 95 1011.4
20190420234629 12 168 0.0 0.0 0.00 6.86 0.00 95 1011.8
20190420233059 12 168 0.0 0.0 0.00 6.86 0.00 95 1012.3
20190420231621 12 168 0.0 0.0 0.00 6.86 0.00 95 1012.6
20190420230120 12 168 0.0 0.0 0.00 6.86 0.00 95 1012.8
20190420224619 12 168 0.0 0.0 0.00 7.87 0.00 95 1013.0
20190420223107 12 168 0.0 0.0 0.00 7.87 0.00 95 1013.1
20190420221549 12 168 0.0 0.0 0.00 7.87 0.00 95 1013.4
20190420220103 13 168 0.0 0.0 0.00 7.87 0.00 95 1013.5
20190420214628 13 168 0.0 0.0 0.00 8.66 7.87 95 1013.7
20190420213058 13 168 0.0 0.0 0.00 8.66 7.87 95 1013.8
20190420211552 13 168 0.0 0.0 0.00 8.66 7.87 95 1013.9
20190420210105 13 168 0.0 0.0 0.00 8.66 7.87 95 1013.9
20190420204557 13 168 0.0 0.0 0.00 8.92 7.87 95 1014.0
20190420203047 13 168 0.0 0.0 0.91 8.92 7.87 95 1014.0
20190420201549 13 166 0.0 0.0 0.91 8.92 7.87 95 1014.0
20190420200123 13 166 0.0 0.0 0.94 8.92 7.87 95 1014.0
20190420194540 13 166 0.0 0.0 0.94 8.92 7.87 95 1013.9
20190420193105 13 166 0.0 0.0 0.03 8.00 6.96 95 1013.7
20190420191616 13 209 0.0 1.6 0.03 8.00 6.96 94 1013.6
20190420190048 13 210 0.0 1.6 0.00 7.98 6.93 94 1013.3
20190420184608 13 210 0.0 3.2 0.00 7.98 6.93 94 1013.3
20190420183110 13 225 0.0 6.4 0.00 7.98 6.93 94 1013.1
20190420181558 13 223 0.0 8.0 0.00 7.98 6.93 94 1013.1
20190420180043 13 231 1.6 6.4 0.00 7.98 6.93 95 1013.1
20190420174548 13 171 0.0 0.0 0.00 7.98 6.93 95 1012.9
20190420173041 13 171 0.0 0.0 0.00 7.98 6.93 95 1012.9
20190420171535 13 171 0.0 0.0 0.00 7.98 6.93 95 1013.0
20190420170050 13 171 0.0 0.0 0.03 7.98 6.93 95 1013.0
20190420164536 13 171 0.0 0.0 0.05 7.98 6.93 95 1012.9
20190420163048 13 171 0.0 6.4 0.08 7.98 6.93 95 1013.1
20190420161538 13 171 1.6 8.0 0.08 7.98 6.93 94 1013.0
20190420160043 13 217 1.6 8.0 0.05 7.95 6.91 94 1012.9
20190420154532 13 169 0.0 0.0 0.03 7.98 6.88 93 1013.0
20190420153030 13 165 0.0 4.8 0.00 7.95 6.86 93 1013.0
20190420151535 13 141 0.0 0.0 0.00 7.95 6.86 92 1013.0